• Join FlightAware (Why Join?)
  • Login
  • US Flag 
07:16PM EDT


 

Airport Tracker/Info


-or-


 

Live Flight TrackerFlight Track Log ✈ SWA397 ✈ 21-Apr-2013 ✈ KBWI - KSTL

Flight Track Log - Related Links

Times and Time Zones

All times are in EDT time to prevent confusion due to time zone crossing. See the SWA397 flight status page for this flight to view local times or setup timezone preferences in your user account.

Time Position Orientation Groundspeed Altitude Reporting Facility
EDT Latitude Longitude Course Direction KTS MPH feet Rate Location/Type
07:17AM 39.1667 -76.7833 211° Southwest 225 259 4,900  Level Potomac TRACON
07:18AM 39.2000 -76.8500 303° West 244 281 9,000 4,500 Climbing Potomac TRACON
07:19AM 39.2167 -76.9333 284° West 259 298 13,000 3,420 Climbing Potomac TRACON
07:20AM 39.2167 -77.0333 270° West 314 361 15,500 2,640 Climbing Potomac TRACON
07:22AM 39.1065 -77.2265 211° Southwest  Level FlightAware Approximate
07:22AM 39.1272 -77.2317 240° Southwest 324 373 21,200  Level Washington Center
07:23AM 39.0922 -77.3514 249° West 341 392 23,000 1,500 Climbing Washington Center
07:24AM 39.0714 -77.4844 259° West 363 418 24,200 2,100 Climbing Washington Center
07:25AM 39.0547 -77.6150 261° West 375 432 27,300 2,700 Climbing Washington Center
07:26AM 39.0314 -77.7589 258° West 375 432 29,600 2,340 Climbing Washington Center
07:27AM 39.0122 -77.8944 260° West 381 438 32,000 2,280 Climbing Washington Center
07:28AM 38.9908 -78.0247 258° West 386 444 34,200 1,980 Climbing Washington Center
07:29AM 38.9694 -78.1547 258° West 386 444 36,000 1,620 Climbing Washington Center
07:30AM 38.9625 -78.2881 266° West 386 444 37,500 960 Climbing Washington Center
07:31AM 38.9675 -78.4244 273° West 386 444 38,000 240 Climbing Washington Center
07:32AM 38.9706 -78.5633 272° West 386 444 38,000  Level Washington Center
07:33AM 38.9756 -78.6997 273° West 386 444 38,000  Level Washington Center
07:34AM 38.9800 -78.8386 272° West 386 444 38,000  Level Washington Center
07:35AM 38.9844 -78.9778 272° West 386 444 38,000  Level Washington Center
07:36AM 38.9869 -79.1169 271° West 386 444 38,000  Level Washington Center
07:37AM 38.9889 -79.2558 271° West 386 444 38,000  Level Washington Center
07:38AM 38.9950 -79.3950 273° West 386 444 38,000  Level Washington Center
07:39AM 38.9989 -79.5342 272° West 386 444 38,000  Level Washington Center
07:40AM 39.0000 -79.6839 271° West 400 460 38,000  Level Washington Center
07:41AM 39.0017 -79.8200 271° West 400 460 38,000  Level Washington Center
07:42AM 39.0033 -79.9458 271° West 405 466 38,000 300 Level Washington Center
07:44AM 39.0078 -80.2286 271° West 389 448 39,000 540 Climbing Indianapolis Center
07:45AM 39.0100 -80.3667 271° West 386 444 39,700 480 Climbing Indianapolis Center
07:46AM 39.0114 -80.5069 271° West 390 449 40,000 120 Climbing Indianapolis Center
07:47AM 39.0136 -80.6481 271° West 394 453 40,000  Level Indianapolis Center
07:48AM 39.0156 -80.7878 271° West 393 452 40,000  Level Indianapolis Center
07:49AM 39.0592 -80.9194 293° West 406 467 40,000  Level Indianapolis Center
07:50AM 39.1114 -81.0489 298° West 409 471 40,000  Level Indianapolis Center
07:51AM 39.1644 -81.1764 298° West 407 468 40,000  Level Indianapolis Center
07:52AM 39.2264 -81.3283 298° West 403 464 40,000  Level Indianapolis Center
07:53AM 39.2783 -81.4553 298° West 402 463 40,000  Level Indianapolis Center
07:54AM 39.3233 -81.5856 294° West 401 461 40,000  Level Indianapolis Center
07:55AM 39.3403 -81.7250 279° West 396 456 40,000  Level Indianapolis Center
07:56AM 39.3589 -81.8647 280° West 396 456 40,000  Level Indianapolis Center
07:57AM 39.3750 -82.0056 278° West 397 457 40,000  Level Indianapolis Center
07:58AM 39.3911 -82.1469 278° West 397 457 40,000  Level Indianapolis Center
07:59AM 39.4086 -82.2892 279° West 399 459 40,000  Level Indianapolis Center
08:00AM 39.4247 -82.4308 278° West 400 460 40,000  Level Indianapolis Center
08:01AM 39.4414 -82.5764 278° West 399 459 40,000  Level Indianapolis Center
08:02AM 39.4586 -82.7175 279° West 396 456 40,000  Level Indianapolis Center
08:03AM 39.4764 -82.8844 278° West 396 456 40,000  Level Indianapolis Center
08:04AM 39.4931 -83.0267 279° West 395 455 40,000  Level Indianapolis Center
08:05AM 39.5083 -83.1700 278° West 397 457 40,000  Level Indianapolis Center
08:06AM 39.5250 -83.3131 279° West 396 456 40,000  Level Indianapolis Center
08:07AM 39.5397 -83.4561 278° West 395 455 40,000  Level Indianapolis Center
08:08AM 39.5553 -83.6000 278° West 396 456 40,000  Level Indianapolis Center
08:09AM 39.5700 -83.7433 278° West 395 455 40,000  Level Indianapolis Center
08:10AM 39.5722 -83.8875 271° West 395 455 40,000  Level Indianapolis Center
08:12AM 39.5683 -84.0308 268° West 393 452 40,000  Level Indianapolis Center
08:13AM 39.5644 -84.1750 268° West 395 455 40,000  Level Indianapolis Center
08:14AM 39.5600 -84.3183 268° West 395 455 40,000  Level Indianapolis Center
08:15AM 39.5564 -84.4625 268° West 394 453 40,000  Level Indianapolis Center
08:16AM 39.5522 -84.6064 268° West 397 457 40,000  Level Indianapolis Center
08:17AM 39.5472 -84.7497 267° West 396 456 40,000  Level Indianapolis Center
08:18AM 39.5431 -84.8939 268° West 397 457 40,000  Level Indianapolis Center
08:19AM 39.5372 -85.0372 267° West 395 455 40,000  Level Indianapolis Center
08:20AM 39.5308 -85.1808 267° West 396 456 40,000  Level Indianapolis Center
08:21AM 39.5264 -85.3250 268° West 398 458 40,000  Level Indianapolis Center
08:22AM 39.5197 -85.4675 267° West 394 453 40,000  Level Indianapolis Center
08:23AM 39.5142 -85.6075 267° West 396 456 40,000  Level Indianapolis Center
08:24AM 39.5075 -85.7508 267° West 397 457 40,000  Level Indianapolis Center
08:25AM 39.5025 -85.8942 267° West 397 457 40,000  Level Indianapolis Center
08:26AM 39.4958 -86.0375 267° West 397 457 40,000  Level Indianapolis Center
08:27AM 39.4903 -86.1825 267° West 401 461 40,000  Level Indianapolis Center
08:28AM 39.4833 -86.3253 266° West 399 459 40,000  Level Indianapolis Center
08:29AM 39.4747 -86.4967 266° West 397 457 40,000  Level Indianapolis Center
08:30AM 39.4681 -86.6419 267° West 402 463 40,000  Level Indianapolis Center
08:31AM 39.4603 -86.7833 266° West 398 458 40,000  Level Indianapolis Center
08:32AM 39.4539 -86.9286 267° West 402 463 40,000  Level Indianapolis Center
08:33AM 39.4464 -87.0731 266° West 402 463 40,000 -300 Level Indianapolis Center
08:34AM 39.4386 -87.2178 266° West 402 463 39,500 -780 Descending Indianapolis Center
08:35AM 39.4303 -87.3622 266° West 402 463 38,500 -960 Descending Indianapolis Center
08:36AM 39.4233 -87.5042 266° West 398 458 37,600 -1,440 Descending Indianapolis Center
08:37AM 39.4147 -87.6489 266° West 402 463 35,600 -2,580 Descending Indianapolis Center
08:38AM 39.4064 -87.7944 266° West 404 465 32,400 -2,880 Descending Indianapolis Center
08:39AM 39.3967 -87.9400 265° West 405 466 29,800 -2,580 Descending Indianapolis Center
08:39AM 39.3953 -87.9947 268° West 398 458 28,800 -1,320 Descending Kansas City Center
08:40AM 39.3714 -88.1286 257° West 384 442 28,000 -960 Descending Kansas City Center
08:41AM 39.3367 -88.2633 252° West 388 447 26,900 -1,080 Descending Kansas City Center
08:42AM 39.3014 -88.3922 251° West 383 441 25,900 -1,020 Descending Kansas City Center
08:43AM 39.2661 -88.5189 250° West 377 434 24,900 -1,140 Descending Kansas City Center
08:44AM 39.2281 -88.6619 251° West 371 427 23,700 -1,140 Descending Kansas City Center
08:46AM 39.1956 -88.7883 252° West 371 427 22,700 -1,020 Descending Kansas City Center
08:47AM 39.1614 -88.9094 250° West 365 420 21,700 -1,080 Descending Kansas City Center
08:48AM 39.1267 -89.0411 251° West 360 414 20,600 -1,080 Descending Kansas City Center
08:49AM 39.0939 -89.1611 251° West 357 411 19,600 -1,020 Descending Kansas City Center
08:49AM 39.0783 -89.1703 205° Southwest 359 413 19,100 -1,020 Descending FAA TRACON SMA TRACON (SMA)
08:49AM 39.0681 -89.2172 254° West 354 407 18,700 -1,080 Descending FAA TRACON SMA TRACON (SMA)
08:50AM 39.0603 -89.2547 255° West 352 405 18,400 -900 Descending FAA TRACON SMA TRACON (SMA)
08:50AM 39.0522 -89.2919 254° West 351 404 18,100 -1,080 Descending FAA TRACON SMA TRACON (SMA)
08:50AM 39.0406 -89.3369 252° West 347 399 17,700 -480 Descending FAA TRACON SMA TRACON (SMA)
08:51AM 39.0311 -89.3728 251° West 344 396 17,800 -300 Climbing FAA TRACON SMA TRACON (SMA)
08:51AM 39.0242 -89.4097 256° West 345 397 17,500 -1,080 Descending FAA TRACON SMA TRACON (SMA)
08:51AM 39.0131 -89.4547 252° West 344 396 17,100 -1,080 Descending FAA TRACON SMA TRACON (SMA)
08:52AM 39.0044 -89.4906 253° West 342 394 16,800 -900 Descending FAA TRACON SMA TRACON (SMA)
08:52AM 38.9958 -89.5264 253° West 341 392 16,500 -1,080 Descending FAA TRACON SMA TRACON (SMA)
08:52AM 38.9831 -89.5706 250° West 342 394 16,100 -1,080 Descending FAA TRACON SMA TRACON (SMA)
08:53AM 38.9722 -89.6058 248° West 343 395 15,800 -1,320 Descending FAA TRACON SMA TRACON (SMA)
08:53AM 38.9600 -89.6394 245° Southwest 340 391 15,200 -1,500 Descending FAA TRACON SMA TRACON (SMA)
08:53AM 38.9469 -89.6814 248° West 331 381 14,800 -1,560 Descending FAA TRACON SMA TRACON (SMA)
08:54AM 38.9353 -89.7133 245° Southwest 323 372 14,200 -1,620 Descending FAA TRACON SMA TRACON (SMA)
08:54AM 38.9264 -89.7461 251° West 319 367 13,700 -1,800 Descending FAA TRACON SMA TRACON (SMA)
08:55AM 38.9125 -89.7861 246° West 316 364 12,900 -2,040 Descending FAA TRACON SMA TRACON (SMA)
08:55AM 38.8931 -89.8503 249° West 316 364 11,700 -1,620 Descending FAA TRACON SMA TRACON (SMA)
08:55AM 38.8828 -89.8817 247° West 311 358 11,400 -1,080 Descending FAA TRACON SMA TRACON (SMA)
08:56AM 38.8708 -89.9194 248° West 299 344 11,000 -1,080 Descending FAA TRACON SMA TRACON (SMA)
08:56AM 38.8617 -89.9483 248° West 289 333 10,700 -1,080 Descending FAA TRACON SMA TRACON (SMA)
08:56AM 38.8519 -89.9769 246° West 284 327 10,300 -1,500 Descending FAA TRACON SMA TRACON (SMA)
08:57AM 38.8403 -90.0125 247° West 283 326 9,700 -1,680 Descending FAA TRACON SMA TRACON (SMA)
08:57AM 38.8314 -90.0408 248° West 281 323 9,200 -1,380 Descending FAA TRACON SMA TRACON (SMA)
08:57AM 38.8217 -90.0692 246° West 280 322 8,800 -1,500 Descending FAA TRACON SMA TRACON (SMA)
08:58AM 38.8106 -90.1044 248° West 278 320 8,200 -1,680 Descending FAA TRACON SMA TRACON (SMA)
08:58AM 38.8019 -90.1322 248° West 274 315 7,700 -900 Descending FAA TRACON SMA TRACON (SMA)
08:58AM 38.7964 -90.1600 256° West 271 312 7,600 -480 Descending FAA TRACON SMA TRACON (SMA)
08:59AM 38.8047 -90.1914 289° West 253 291 7,400 -180 Descending FAA TRACON SMA TRACON (SMA)
08:59AM 38.8144 -90.2125 301° West 229 264 7,500 300 Climbing FAA TRACON SMA TRACON (SMA)
08:59AM 38.8231 -90.2300 302° West 198 228 7,600 -180 Climbing FAA TRACON SMA TRACON (SMA)
09:00AM 38.8331 -90.2481 305° West 164 189 7,400 -900 Descending FAA TRACON SMA TRACON (SMA)
09:00AM 38.8392 -90.2619 299° West 148 170 7,000 -1,680 Descending FAA TRACON SMA TRACON (SMA)
09:00AM 38.8461 -90.2803 296° West 145 167 6,300 -1,620 Descending FAA TRACON SMA TRACON (SMA)
09:01AM 38.8522 -90.2944 299° West 148 170 5,900 -1,200 Descending FAA TRACON SMA TRACON (SMA)
09:01AM 38.8575 -90.3083 296° West 144 166 5,500 -1,560 Descending FAA TRACON SMA TRACON (SMA)
09:01AM 38.8592 -90.3267 277° West 140 161 4,900 -1,500 Descending FAA TRACON SMA TRACON (SMA)
09:02AM 38.8533 -90.3392 239° Southwest 137 158 4,500 -1,200 Descending FAA TRACON SMA TRACON (SMA)
09:02AM 38.8461 -90.3500 229° Southwest 132 152 4,100 -1,440 Descending FAA TRACON SMA TRACON (SMA)
09:02AM 38.8364 -90.3631 226° Southwest 130 150 3,600 -1,500 Descending FAA TRACON SMA TRACON (SMA)
09:03AM 38.8289 -90.3731 226° Southwest 130 150 3,100 -1,380 Descending FAA TRACON SMA TRACON (SMA)
09:03AM 38.8203 -90.3811 216° Southwest 125 144 2,700 -1,260 Descending FAA TRACON SMA TRACON (SMA)
09:03AM 38.8081 -90.3850 194° South 118 136 2,300 -1,200 Descending FAA TRACON SMA TRACON (SMA)
09:04AM 38.7989 -90.3861 185° South 112 129 1,900 -780 Descending FAA TRACON SMA TRACON (SMA)
09:04AM 38.7897 -90.3839 169° South 109 125 1,800 -480 Descending FAA TRACON SMA TRACON (SMA)
09:04AM 38.7792 -90.3772 154° Southeast 109 125 1,600 -480 Descending FAA TRACON SMA TRACON (SMA)
09:05AM 38.7722 -90.3683 135° Southeast 112 129 1,500 -480 Descending FAA TRACON SMA TRACON (SMA)
09:05AM 38.7661 -90.3586 129° Southeast 115 132 1,300 -780 Descending FAA TRACON SMA TRACON (SMA)
09:05AM 38.7594 -90.3456 123° Southeast 114 131 1,000 -780 Descending FAA TRACON SMA TRACON (SMA)
09:06AM 38.7542 -90.3350 123° Southeast 116 133 800 -600 Descending FAA TRACON SMA TRACON (SMA)
09:06AM 38.7500 -90.3264 122° Southeast 118 136 600 -660 Descending FAA TRACON SMA TRACON (SMA)